createdAt,value
2018-07-17T00:02:27.728Z,61.83
2018-07-17T00:04:56.393Z,61.76
2018-07-17T00:07:25.224Z,62.30
2018-07-17T00:09:54.053Z,61.46
2018-07-17T00:12:22.720Z,61.76
2018-07-17T00:14:51.491Z,62.24
2018-07-17T00:17:20.195Z,62.50
2018-07-17T00:19:48.993Z,62.95
2018-07-17T00:22:17.837Z,63.05
2018-07-17T00:24:46.526Z,63.62
2018-07-17T00:27:15.238Z,62.94
2018-07-17T00:29:43.872Z,63.46
2018-07-17T00:32:12.530Z,63.13
2018-07-17T00:34:41.261Z,62.97
2018-07-17T00:37:10.011Z,62.98
2018-07-17T00:39:38.658Z,63.48
2018-07-17T00:42:07.285Z,63.79
2018-07-17T00:44:35.972Z,64.21
2018-07-17T00:47:04.577Z,64.11
2018-07-17T00:49:33.216Z,63.43
2018-07-17T00:52:01.891Z,63.76
2018-07-17T00:54:30.534Z,64.30
2018-07-17T00:56:59.214Z,63.75
2018-07-17T00:59:27.938Z,63.81
2018-07-17T01:02:01.725Z,63.91
2018-07-17T01:04:35.570Z,64.46
2018-07-17T01:07:09.347Z,64.17
2018-07-17T01:09:43.316Z,63.86
2018-07-17T01:12:12.867Z,64.56
2018-07-17T01:14:50.860Z,64.14
2018-07-17T01:17:19.579Z,64.73
2018-07-17T01:19:48.291Z,64.39
2018-07-17T01:22:17.014Z,64.57
2018-07-17T01:24:45.748Z,65.08
2018-07-17T01:27:14.402Z,65.40
2018-07-17T01:29:43.121Z,65.40
2018-07-17T01:32:11.781Z,65.46
2018-07-17T01:34:40.420Z,65.72
2018-07-17T01:37:09.160Z,65.24
2018-07-17T01:39:37.953Z,65.39
2018-07-17T01:42:06.789Z,65.67
2018-07-17T01:44:35.445Z,66.07
2018-07-17T01:47:04.090Z,66.10
2018-07-17T01:49:32.699Z,66.67
2018-07-17T01:52:01.314Z,66.60
2018-07-17T01:54:30.031Z,66.46
2018-07-17T01:56:58.693Z,67.61
2018-07-17T01:59:27.407Z,66.29
2018-07-17T02:01:56.051Z,66.86
2018-07-17T02:04:24.642Z,66.73
2018-07-17T02:06:53.708Z,67.17
2018-07-17T02:09:22.358Z,66.92
2018-07-17T02:11:51.047Z,67.03
2018-07-17T02:14:19.707Z,67.03
2018-07-17T02:16:48.303Z,67.48
2018-07-17T02:19:16.972Z,67.30
2018-07-17T02:21:45.591Z,68.48
2018-07-17T02:24:14.264Z,67.37
2018-07-17T02:26:42.844Z,67.51
2018-07-17T02:29:11.453Z,67.93
2018-07-17T02:31:40.131Z,68.04
2018-07-17T02:34:08.752Z,68.40
2018-07-17T02:36:37.523Z,67.75
2018-07-17T02:39:07.852Z,67.32
2018-07-17T02:41:36.565Z,67.30
2018-07-17T02:44:05.212Z,67.29
2018-07-17T02:46:33.813Z,67.16
2018-07-17T02:49:02.410Z,67.36
2018-07-17T02:51:31.492Z,67.08
2018-07-17T02:54:00.300Z,67.20
2018-07-17T02:56:28.954Z,67.47
2018-07-17T02:58:57.725Z,67.15
2018-07-17T03:01:26.380Z,67.05
2018-07-17T03:03:55.042Z,66.88
2018-07-17T03:06:23.904Z,66.56
2018-07-17T03:08:52.626Z,67.28
2018-07-17T03:11:21.258Z,66.54
2018-07-17T03:13:49.969Z,66.09
2018-07-17T03:16:18.719Z,66.02
2018-07-17T03:18:47.358Z,65.70
2018-07-17T03:21:16.111Z,65.46
2018-07-17T03:23:44.812Z,65.26
2018-07-17T03:26:13.472Z,64.56
2018-07-17T03:28:42.094Z,64.38
2018-07-17T03:31:10.740Z,64.81
2018-07-17T03:33:39.374Z,64.15
2018-07-17T03:36:08.073Z,63.93
2018-07-17T03:38:37.052Z,64.05
2018-07-17T03:41:05.678Z,64.03
2018-07-17T03:43:34.420Z,63.88
2018-07-17T03:46:03.172Z,64.06
2018-07-17T03:48:31.894Z,63.40
2018-07-17T03:51:00.495Z,63.53
2018-07-17T03:53:29.112Z,63.67
2018-07-17T03:55:57.927Z,63.28
2018-07-17T03:58:26.614Z,63.01
2018-07-17T04:00:55.370Z,63.19
2018-07-17T04:03:23.988Z,62.51
2018-07-17T04:05:52.716Z,63.05
2018-07-17T04:08:21.476Z,62.94
2018-07-17T04:10:50.236Z,62.58
2018-07-17T04:13:18.856Z,63.78
2018-07-17T04:15:47.501Z,63.35
2018-07-17T04:18:16.220Z,62.92
2018-07-17T04:20:44.979Z,62.94
2018-07-17T04:23:13.655Z,63.01
2018-07-17T04:25:42.319Z,62.71
2018-07-17T04:28:11.023Z,62.19
2018-07-17T04:30:39.699Z,62.58
2018-07-17T04:33:08.407Z,61.98
2018-07-17T04:35:37.038Z,62.42
2018-07-17T04:38:06.020Z,61.38
2018-07-17T04:40:34.594Z,61.40
2018-07-17T04:43:03.337Z,61.68
2018-07-17T04:45:32.288Z,61.76
2018-07-17T04:48:00.977Z,61.17
2018-07-17T04:50:29.622Z,61.35
2018-07-17T04:52:58.258Z,60.41
2018-07-17T04:55:26.960Z,59.90
2018-07-17T04:57:55.707Z,59.29
2018-07-17T05:00:24.397Z,58.62
2018-07-17T05:02:53.203Z,57.58
2018-07-17T05:05:21.912Z,56.80
2018-07-17T05:07:50.682Z,57.28
2018-07-17T05:10:19.337Z,56.66
2018-07-17T05:12:47.958Z,56.52
2018-07-17T05:15:16.709Z,55.86
2018-07-17T05:17:45.386Z,55.32
2018-07-17T05:20:13.984Z,55.69
2018-07-17T05:22:42.667Z,55.54
2018-07-17T05:25:11.318Z,54.59
2018-07-17T05:27:39.990Z,53.28
2018-07-17T05:30:08.689Z,52.57
2018-07-17T05:32:37.326Z,52.66
2018-07-17T05:35:06.108Z,52.95
2018-07-17T05:37:34.759Z,52.01
2018-07-17T05:40:03.457Z,52.22
2018-07-17T05:42:32.224Z,50.93
2018-07-17T05:45:00.841Z,51.28
2018-07-17T05:47:29.526Z,49.68
2018-07-17T05:49:58.224Z,50.58
2018-07-17T05:52:26.869Z,49.43
2018-07-17T05:54:55.514Z,50.02
2018-07-17T05:57:24.191Z,49.96
2018-07-17T05:59:53.117Z,49.25
2018-07-17T06:02:21.797Z,48.87
2018-07-17T06:04:50.462Z,49.34
2018-07-17T06:07:19.142Z,49.28
2018-07-17T06:09:47.842Z,49.68
2018-07-17T06:12:16.497Z,49.35
2018-07-17T06:14:45.207Z,49.65
2018-07-17T06:17:13.974Z,47.61
2018-07-17T06:19:42.589Z,47.83
2018-07-17T06:22:11.227Z,48.02
2018-07-17T06:24:39.928Z,48.60
2018-07-17T06:27:08.626Z,48.26
2018-07-17T06:29:37.301Z,48.30
2018-07-17T06:32:05.953Z,47.71
2018-07-17T06:34:34.680Z,47.92
2018-07-17T06:37:03.354Z,47.78
2018-07-17T06:39:32.120Z,47.69
2018-07-17T06:42:01.073Z,46.36
2018-07-17T06:44:29.796Z,46.31
2018-07-17T06:46:58.505Z,45.16
2018-07-17T06:49:27.170Z,45.53
2018-07-17T06:51:55.833Z,45.49
2018-07-17T06:54:24.685Z,43.74
2018-07-17T06:56:53.318Z,45.28
2018-07-17T06:59:22.192Z,44.97
2018-07-17T07:01:50.829Z,44.72
2018-07-17T07:04:19.487Z,45.19
2018-07-17T07:06:48.114Z,44.25
2018-07-17T07:09:17.368Z,45.03
2018-07-17T07:11:46.133Z,44.53
2018-07-17T07:14:14.737Z,44.52
2018-07-17T07:16:43.401Z,44.56
2018-07-17T07:19:12.042Z,43.28
2018-07-17T07:21:40.707Z,43.83
2018-07-17T07:24:09.446Z,41.34
2018-07-17T07:26:38.120Z,41.70
2018-07-17T07:29:06.768Z,42.09
2018-07-17T07:31:35.404Z,42.91
2018-07-17T07:34:04.144Z,42.72
2018-07-17T07:36:32.766Z,42.92
2018-07-17T07:39:01.384Z,41.36
2018-07-17T07:41:30.039Z,41.69
2018-07-17T07:43:58.828Z,42.52
2018-07-17T07:46:27.665Z,40.94
2018-07-17T07:48:56.518Z,41.61
2018-07-17T07:51:25.127Z,41.39
2018-07-17T07:53:53.841Z,42.26
2018-07-17T07:56:22.472Z,42.62
2018-07-17T07:58:51.136Z,41.29
2018-07-17T08:01:19.854Z,40.69
2018-07-17T08:03:48.481Z,40.44
2018-07-17T08:06:17.134Z,40.04
2018-07-17T08:08:45.881Z,40.52
2018-07-17T08:11:14.604Z,40.51
2018-07-17T08:13:43.269Z,39.95
2018-07-17T08:16:11.998Z,39.93
2018-07-17T08:18:40.703Z,40.60
2018-07-17T08:21:09.415Z,40.39
2018-07-17T08:23:38.098Z,40.29
2018-07-17T08:26:06.759Z,39.42
2018-07-17T08:28:35.385Z,39.01
2018-07-17T08:31:04.143Z,39.80
2018-07-17T08:33:33.086Z,39.92
2018-07-17T08:36:01.835Z,40.38
2018-07-17T08:38:30.461Z,40.70
2018-07-17T08:40:59.142Z,40.10
2018-07-17T08:43:27.910Z,40.96
2018-07-17T08:45:56.418Z,41.41
2018-07-17T08:48:25.012Z,40.77
2018-07-17T08:50:53.743Z,40.28
2018-07-17T08:53:22.439Z,40.79
2018-07-17T08:55:51.119Z,39.58
2018-07-17T08:58:19.812Z,39.04
2018-07-17T09:00:48.521Z,38.70
2018-07-17T09:03:23.818Z,38.80
2018-07-17T09:05:52.510Z,38.07
2018-07-17T09:08:21.204Z,38.18
2018-07-17T09:10:50.017Z,38.23
2018-07-17T09:13:18.639Z,36.93
2018-07-17T09:15:47.232Z,36.64
2018-07-17T09:18:16.015Z,36.69
2018-07-17T09:20:44.661Z,37.26
2018-07-17T09:23:13.286Z,36.68
2018-07-17T09:25:41.943Z,36.47
2018-07-17T09:28:10.544Z,37.13
2018-07-17T09:30:44.453Z,36.28
2018-07-17T09:33:13.170Z,37.40
2018-07-17T09:35:41.819Z,36.00
2018-07-17T09:38:10.456Z,36.82
2018-07-17T09:40:39.073Z,35.59
2018-07-17T09:43:07.957Z,34.54
2018-07-17T09:45:36.629Z,36.16
2018-07-17T09:48:05.425Z,35.68
2018-07-17T09:50:34.121Z,34.42
2018-07-17T09:53:02.930Z,35.16
2018-07-17T09:55:31.807Z,33.74
2018-07-17T09:58:00.580Z,33.88
2018-07-17T10:00:39.122Z,34.06
2018-07-17T10:03:07.935Z,36.05
2018-07-17T10:05:36.644Z,34.76
2018-07-17T10:08:05.350Z,34.16
2018-07-17T10:10:34.217Z,33.38
2018-07-17T10:13:02.960Z,33.23
2018-07-17T10:15:31.715Z,32.86
2018-07-17T10:18:00.343Z,34.26
2018-07-17T10:20:28.985Z,32.63
2018-07-17T10:22:57.816Z,33.25
2018-07-17T10:25:26.575Z,32.99
2018-07-17T10:27:55.344Z,33.18
2018-07-17T10:30:24.064Z,31.96
2018-07-17T10:32:52.686Z,32.54
2018-07-17T10:35:21.344Z,33.63
2018-07-17T10:37:50.078Z,33.99
2018-07-17T10:40:18.785Z,33.30
2018-07-17T10:42:47.570Z,32.61
2018-07-17T10:45:16.357Z,33.40
2018-07-17T10:47:45.043Z,32.21
2018-07-17T10:50:13.754Z,33.15
2018-07-17T10:52:42.397Z,33.41
2018-07-17T10:55:11.032Z,33.58
2018-07-17T10:57:40.273Z,33.66
2018-07-17T11:00:08.908Z,32.99
2018-07-17T11:02:37.670Z,32.33
2018-07-17T11:05:06.307Z,32.47
2018-07-17T11:07:35.003Z,32.35
2018-07-17T11:10:03.743Z,30.76
2018-07-17T11:12:32.370Z,32.05
2018-07-17T11:15:00.987Z,31.21
2018-07-17T11:17:29.948Z,31.17
2018-07-17T11:19:58.641Z,30.79
2018-07-17T11:22:27.361Z,31.73
2018-07-17T11:24:56.015Z,31.32
2018-07-17T11:27:24.804Z,31.01
2018-07-17T11:29:53.437Z,31.53
2018-07-17T11:32:22.030Z,30.62
2018-07-17T11:34:50.692Z,30.47
2018-07-17T11:37:19.533Z,31.12
2018-07-17T11:39:48.235Z,30.67
2018-07-17T11:42:16.930Z,29.80
2018-07-17T11:44:45.593Z,29.73
2018-07-17T11:47:14.206Z,29.88
2018-07-17T11:49:42.863Z,29.15
2018-07-17T11:52:11.456Z,29.16
2018-07-17T11:54:40.089Z,28.65
2018-07-17T11:57:08.843Z,30.18
2018-07-17T11:59:37.655Z,28.84
2018-07-17T12:02:06.468Z,29.81
2018-07-17T12:04:35.326Z,29.69
2018-07-17T12:07:03.916Z,28.51
2018-07-17T12:09:32.617Z,28.01
2018-07-17T12:12:01.391Z,28.07
2018-07-17T12:14:30.143Z,29.31
2018-07-17T12:16:58.942Z,27.70
2018-07-17T12:19:27.720Z,28.51
2018-07-17T12:21:56.401Z,29.07
2018-07-17T12:24:25.238Z,29.07
2018-07-17T12:26:53.877Z,28.79
2018-07-17T12:29:22.565Z,28.64
2018-07-17T12:31:51.236Z,28.06
2018-07-17T12:34:19.807Z,27.90
2018-07-17T12:36:48.535Z,27.10
2018-07-17T12:39:17.167Z,27.47
2018-07-17T12:41:45.889Z,26.93
2018-07-17T12:44:14.528Z,26.30
2018-07-17T12:46:43.097Z,26.60
2018-07-17T12:49:11.871Z,26.92
2018-07-17T12:51:40.558Z,25.88
2018-07-17T12:54:09.248Z,27.11
2018-07-17T12:56:37.932Z,27.36
2018-07-17T12:59:06.655Z,27.33
2018-07-17T13:01:35.468Z,27.41
2018-07-17T13:04:04.311Z,27.14
2018-07-17T13:06:33.185Z,26.98
2018-07-17T13:09:01.861Z,26.67
2018-07-17T13:11:30.538Z,26.83
2018-07-17T13:13:59.523Z,27.89
2018-07-17T13:16:28.418Z,25.77
2018-07-17T13:18:57.081Z,25.82
2018-07-17T13:21:26.440Z,24.89
2018-07-17T13:23:55.369Z,24.22
2018-07-17T13:26:24.127Z,23.72
2018-07-17T13:28:52.953Z,23.68
2018-07-17T13:31:21.736Z,23.88
2018-07-17T13:33:50.501Z,21.46
2018-07-17T13:36:19.161Z,19.37
2018-07-17T13:38:48.017Z,18.30
2018-07-17T13:41:16.717Z,18.77
2018-07-17T13:43:45.376Z,18.28
2018-07-17T13:46:14.261Z,17.11
2018-07-17T13:48:42.961Z,19.06
2018-07-17T13:51:11.780Z,19.13
2018-07-17T13:53:40.402Z,20.95
2018-07-17T13:56:09.292Z,22.43
2018-07-17T13:58:37.915Z,22.86
2018-07-17T14:01:06.681Z,23.42
2018-07-17T14:03:35.937Z,24.21
2018-07-17T14:06:04.816Z,24.35
2018-07-17T14:08:33.389Z,24.76
2018-07-17T14:11:02.084Z,26.00
2018-07-17T14:13:31.455Z,25.08
2018-07-17T14:16:00.278Z,24.38
2018-07-17T14:18:29.016Z,24.45
2018-07-17T14:20:57.721Z,24.98
2018-07-17T14:23:26.509Z,26.06
2018-07-17T14:25:55.199Z,25.12
2018-07-17T14:28:23.850Z,25.55
2018-07-17T14:30:52.618Z,25.41
2018-07-17T14:33:21.433Z,24.55
2018-07-17T14:35:50.096Z,25.13
2018-07-17T14:38:18.716Z,25.78
2018-07-17T14:40:47.693Z,24.43
2018-07-17T14:43:16.456Z,24.94
2018-07-17T14:45:45.101Z,24.40
2018-07-17T14:48:14.039Z,23.90
2018-07-17T14:50:42.671Z,23.23
2018-07-17T14:53:11.439Z,22.68
2018-07-17T14:55:40.077Z,22.05
2018-07-17T14:58:08.797Z,22.41
2018-07-17T15:00:37.445Z,21.13
2018-07-17T15:03:06.230Z,20.22
2018-07-17T15:05:35.127Z,19.34
2018-07-17T15:08:03.845Z,20.30
2018-07-17T15:10:32.463Z,20.76
2018-07-17T15:13:01.187Z,20.51
2018-07-17T15:15:30.067Z,20.48
2018-07-17T15:17:58.749Z,20.78
2018-07-17T15:20:27.518Z,21.42
2018-07-17T15:22:56.164Z,20.47
2018-07-17T15:25:24.816Z,22.48
2018-07-17T15:27:53.525Z,23.62
2018-07-17T15:30:22.295Z,24.32
2018-07-17T15:32:51.120Z,27.14
2018-07-17T15:35:23.194Z,28.00
2018-07-17T15:37:51.939Z,29.01
2018-07-17T15:40:20.628Z,30.24
2018-07-17T15:42:49.412Z,30.19
2018-07-17T15:45:18.319Z,29.96
2018-07-17T15:47:47.032Z,30.43
2018-07-17T15:50:15.786Z,30.84
2018-07-17T15:52:44.440Z,30.40
2018-07-17T15:55:13.080Z,31.17
2018-07-17T15:57:41.756Z,30.53
2018-07-17T16:00:10.584Z,31.97
2018-07-17T16:02:39.267Z,30.82
2018-07-17T16:05:08.026Z,31.64
2018-07-17T16:07:37.077Z,32.46
2018-07-17T16:10:06.073Z,32.00
2018-07-17T16:12:34.829Z,32.11
2018-07-17T16:15:03.661Z,32.55
2018-07-17T16:17:32.655Z,32.11
2018-07-17T16:20:01.559Z,31.66
2018-07-17T16:22:30.436Z,32.37
2018-07-17T16:24:59.152Z,31.86
2018-07-17T16:27:27.878Z,32.73
2018-07-17T16:29:56.840Z,33.11
2018-07-17T16:32:25.525Z,31.81
2018-07-17T16:34:54.250Z,31.58
2018-07-17T16:37:23.078Z,31.60
2018-07-17T16:39:52.726Z,31.04
2018-07-17T16:42:21.385Z,30.97
2018-07-17T16:44:50.051Z,30.96
2018-07-17T16:47:18.744Z,31.59
2018-07-17T16:49:47.368Z,31.96
2018-07-17T16:52:16.168Z,31.65
2018-07-17T16:54:44.866Z,32.64
2018-07-17T16:57:13.543Z,32.78
2018-07-17T16:59:42.183Z,32.43
2018-07-17T17:02:10.906Z,32.84
2018-07-17T17:04:39.589Z,32.76
2018-07-17T17:07:08.346Z,32.44
2018-07-17T17:09:37.426Z,32.95
2018-07-17T17:12:06.479Z,33.73
2018-07-17T17:14:35.295Z,33.65
2018-07-17T17:17:03.953Z,33.76
2018-07-17T17:19:32.638Z,34.25
2018-07-17T17:22:01.395Z,33.95
2018-07-17T17:24:30.098Z,34.18
2018-07-17T17:26:58.774Z,34.34
2018-07-17T17:29:27.554Z,33.45
2018-07-17T17:31:56.127Z,34.58
2018-07-17T17:34:24.818Z,34.23
2018-07-17T17:36:53.402Z,33.96
2018-07-17T17:39:22.054Z,33.72
2018-07-17T17:41:50.730Z,33.97
2018-07-17T17:44:19.398Z,34.32
2018-07-17T17:46:48.018Z,34.12
2018-07-17T17:49:16.735Z,35.10
2018-07-17T17:51:45.386Z,35.33
2018-07-17T17:54:14.067Z,35.70
2018-07-17T17:56:42.736Z,35.49
2018-07-17T17:59:11.409Z,36.05
2018-07-17T18:01:40.159Z,36.77
2018-07-17T18:04:08.841Z,37.34
2018-07-17T18:06:37.558Z,38.84
2018-07-17T18:09:07.877Z,39.04
2018-07-17T18:11:37.462Z,39.87
2018-07-17T18:14:06.192Z,40.88
2018-07-17T18:16:34.863Z,40.93
2018-07-17T18:19:03.544Z,42.17
2018-07-17T18:21:32.293Z,41.96
2018-07-17T18:24:01.062Z,43.13
2018-07-17T18:26:29.841Z,43.36
2018-07-17T18:28:58.570Z,42.28
2018-07-17T18:31:27.271Z,42.77
2018-07-17T18:33:55.922Z,42.11
2018-07-17T18:36:24.569Z,42.38
2018-07-17T18:38:53.246Z,43.08
2018-07-17T18:41:21.941Z,43.08
2018-07-17T18:43:50.544Z,43.08
2018-07-17T18:46:19.444Z,43.80
2018-07-17T18:48:48.470Z,44.15
2018-07-17T18:51:17.597Z,44.27
2018-07-17T18:53:46.515Z,44.35
2018-07-17T18:56:15.103Z,43.82
2018-07-17T18:58:44.743Z,44.81
2018-07-17T19:01:13.461Z,46.33
2018-07-17T19:03:42.058Z,45.52
2018-07-17T19:06:10.833Z,46.96
2018-07-17T19:08:39.691Z,46.10
2018-07-17T19:11:08.561Z,47.18
2018-07-17T19:13:37.585Z,46.91
2018-07-17T19:16:06.308Z,45.72
2018-07-17T19:18:34.966Z,45.42
2018-07-17T19:21:03.771Z,45.83
2018-07-17T19:23:32.419Z,46.14
2018-07-17T19:26:01.206Z,46.39
2018-07-17T19:28:29.772Z,46.28
2018-07-17T19:30:58.417Z,46.62
2018-07-17T19:33:27.146Z,46.44
2018-07-17T19:35:55.788Z,47.00
2018-07-17T19:38:24.481Z,47.42
2018-07-17T19:40:53.196Z,47.95
2018-07-17T19:43:21.888Z,47.86
2018-07-17T19:45:50.589Z,48.57
2018-07-17T19:48:19.446Z,48.78
2018-07-17T19:50:48.084Z,49.10
2018-07-17T19:53:16.790Z,49.06
2018-07-17T19:55:45.425Z,49.85
2018-07-17T19:58:14.100Z,50.21
2018-07-17T20:00:42.813Z,50.15
2018-07-17T20:03:11.417Z,50.62
2018-07-17T20:05:40.105Z,50.85
2018-07-17T20:08:08.831Z,51.66
2018-07-17T20:10:37.612Z,51.97
2018-07-17T20:13:06.252Z,52.40
2018-07-17T20:15:35.109Z,52.61
2018-07-17T20:18:03.854Z,53.15
2018-07-17T20:20:32.747Z,53.87
2018-07-17T20:23:01.698Z,54.41
2018-07-17T20:25:30.327Z,54.86
2018-07-17T20:27:59.032Z,54.98
2018-07-17T20:30:27.604Z,55.95
2018-07-17T20:32:56.291Z,56.32
2018-07-17T20:35:24.975Z,57.38
2018-07-17T20:37:53.615Z,56.89
2018-07-17T20:40:22.313Z,57.91
2018-07-17T20:42:50.961Z,57.38
2018-07-17T20:45:19.643Z,57.92
2018-07-17T20:47:48.360Z,58.35
2018-07-17T20:50:17.096Z,58.66
2018-07-17T20:52:46.173Z,59.46
2018-07-17T20:55:14.648Z,59.20
2018-07-17T20:57:44.244Z,58.94
2018-07-17T21:00:12.926Z,59.22
2018-07-17T21:02:41.555Z,59.55
2018-07-17T21:05:10.289Z,59.73
2018-07-17T21:07:39.069Z,60.75
2018-07-17T21:10:08.325Z,61.52
2018-07-17T21:12:37.087Z,60.84
2018-07-17T21:15:06.121Z,61.43
2018-07-17T21:17:34.862Z,61.74
2018-07-17T21:20:03.515Z,62.06
2018-07-17T21:22:32.280Z,61.74
2018-07-17T21:25:00.931Z,61.99
2018-07-17T21:27:29.534Z,61.73
2018-07-17T21:29:58.256Z,61.79
2018-07-17T21:32:26.922Z,61.83
2018-07-17T21:34:55.580Z,61.92
2018-07-17T21:37:24.247Z,61.95
2018-07-17T21:39:53.038Z,61.93
2018-07-17T21:42:21.713Z,61.39
2018-07-17T21:44:50.321Z,61.38
2018-07-17T21:47:18.891Z,61.95
2018-07-17T21:49:47.427Z,61.98
2018-07-17T21:52:16.114Z,62.21
2018-07-17T21:54:44.756Z,62.67
2018-07-17T21:57:13.366Z,63.14
2018-07-17T21:59:42.145Z,63.40
2018-07-17T22:02:10.820Z,63.45
2018-07-17T22:04:39.471Z,63.19
2018-07-17T22:07:08.140Z,64.11
2018-07-17T22:09:37.107Z,63.41
2018-07-17T22:12:05.797Z,63.64
2018-07-17T22:14:34.414Z,63.28
2018-07-17T22:17:03.059Z,63.42
2018-07-17T22:19:31.700Z,63.75
2018-07-17T22:22:00.427Z,63.43
2018-07-17T22:24:29.065Z,63.60
2018-07-17T22:26:57.655Z,63.79
2018-07-17T22:29:26.278Z,64.09
2018-07-17T22:31:55.174Z,64.47
2018-07-17T22:34:23.803Z,64.28
2018-07-17T22:36:52.430Z,64.60
2018-07-17T22:39:21.094Z,65.47
2018-07-17T22:41:49.695Z,66.35
2018-07-17T22:44:18.334Z,66.21
2018-07-17T22:46:46.977Z,66.54
2018-07-17T22:49:21.567Z,66.52
2018-07-17T22:51:51.267Z,66.49
2018-07-17T22:54:19.955Z,66.56
2018-07-17T22:56:48.858Z,66.37
2018-07-17T22:59:18.535Z,66.61
2018-07-17T23:01:47.496Z,66.77
2018-07-17T23:04:16.466Z,66.77
2018-07-17T23:06:45.207Z,66.88
2018-07-17T23:09:13.785Z,66.61
2018-07-17T23:11:42.413Z,66.65
2018-07-17T23:14:11.091Z,67.02
2018-07-17T23:16:39.952Z,66.48
2018-07-17T23:19:08.624Z,66.64
2018-07-17T23:21:37.344Z,67.19
2018-07-17T23:24:06.117Z,67.14
2018-07-17T23:26:35.019Z,66.75
2018-07-17T23:29:03.690Z,67.36
2018-07-17T23:31:32.328Z,67.24
2018-07-17T23:34:01.132Z,67.68
2018-07-17T23:36:29.785Z,67.57
2018-07-17T23:38:58.526Z,67.67
2018-07-17T23:41:27.298Z,68.19
2018-07-17T23:43:55.982Z,68.29
2018-07-17T23:46:24.822Z,68.65
2018-07-17T23:48:53.411Z,68.65
2018-07-17T23:51:22.172Z,69.16
2018-07-17T23:53:50.880Z,69.34
2018-07-17T23:56:19.506Z,69.77
2018-07-17T23:58:48.479Z,70.00
